Time,TemperatureF,DewpointF,PressureIn,WindDirection,WindDirectionDegrees,WindSpeedMPH,WindSpeedGustMPH,Humidity,HourlyPrecipIn,Conditions,Clouds,dailyrainin,SoftwareType,DateUTC
2013-05-13 00:00:00,54.1,23.4,30.17,SW,226,8.7,8.7,30,0.00,,---,0.00,VWS V14.01,2013-05-13 07:00:00,
2013-05-13 00:05:00,54.0,23.2,30.17,SW,226,8.7,8.7,30,0.00,,---,0.00,VWS V14.01,2013-05-13 07:05:00,
2013-05-13 00:11:00,53.6,22.9,30.17,SW,226,8.7,8.7,30,0.00,,---,0.00,VWS V14.01,2013-05-13 07:11:00,
2013-05-13 00:16:00,53.6,22.9,30.17,SW,226,8.7,8.7,30,0.00,,---,0.00,VWS V14.01,2013-05-13 07:16:00,
2013-05-13 00:21:00,53.6,22.9,30.17,SW,226,8.7,8.7,30,0.00,,---,0.00,VWS V14.01,2013-05-13 07:21:00,
2013-05-13 00:26:00,53.4,23.9,30.17,SW,226,8.7,8.7,32,0.00,,---,0.00,VWS V14.01,2013-05-13 07:26:00,
2013-05-13 00:32:00,53.1,25.8,30.17,SW,226,8.7,8.7,34,0.00,,---,0.00,VWS V14.01,2013-05-13 07:32:00,
2013-05-13 00:39:00,52.9,25.6,30.17,SW,226,8.7,8.7,34,0.00,,---,0.00,VWS V14.01,2013-05-13 07:39:00,
2013-05-13 00:44:00,52.9,25.6,30.17,SW,226,8.7,8.7,34,0.00,,---,0.00,VWS V14.01,2013-05-13 07:44:00,
2013-05-13 00:49:00,52.9,25.6,30.17,SW,226,8.7,8.7,34,0.00,,---,0.00,VWS V14.01,2013-05-13 07:49:00,
2013-05-13 00:54:00,52.2,25.0,30.17,SW,226,8.7,8.7,34,0.00,,---,0.00,VWS V14.01,2013-05-13 07:54:00,
2013-05-13 00:59:00,51.6,25.6,30.17,SW,226,8.7,8.7,36,0.00,,---,0.00,VWS V14.01,2013-05-13 07:59:00,
2013-05-13 01:04:00,51.6,25.6,30.17,SW,226,8.7,8.7,36,0.00,,---,0.00,VWS V14.01,2013-05-13 08:04:00,
2013-05-13 01:09:00,51.4,25.4,30.17,SW,226,8.7,8.7,36,0.00,,---,0.00,VWS V14.01,2013-05-13 08:09:00,
2013-05-13 01:15:00,51.6,25.6,30.17,SW,226,8.7,8.7,36,0.00,,---,0.00,VWS V14.01,2013-05-13 08:15:00,
2013-05-13 01:20:00,51.4,25.4,30.17,SW,226,8.7,8.7,36,0.00,,---,0.00,VWS V14.01,2013-05-13 08:20:00,
2013-05-13 01:25:00,51.3,25.2,30.17,SW,226,8.7,8.7,36,0.00,,---,0.00,VWS V14.01,2013-05-13 08:25:00,
2013-05-13 01:30:00,51.3,25.2,30.17,SW,226,8.7,8.7,36,0.00,,---,0.00,VWS V14.01,2013-05-13 08:30:00,
2013-05-13 01:36:00,50.5,24.6,30.17,SW,226,8.7,8.7,36,0.00,,---,0.00,VWS V14.01,2013-05-13 08:36:00,
2013-05-13 01:41:00,50.2,26.2,30.17,SW,226,8.7,8.7,39,0.00,,---,0.00,VWS V14.01,2013-05-13 08:41:00,
2013-05-13 01:47:00,50.2,26.2,30.17,SW,226,8.7,8.7,39,0.00,,---,0.00,VWS V14.01,2013-05-13 08:47:00,
2013-05-13 01:52:00,50.4,26.4,30.17,SW,226,8.7,8.7,39,0.00,,---,0.00,VWS V14.01,2013-05-13 08:52:00,
2013-05-13 01:57:00,50.2,26.2,30.17,SW,226,8.7,8.7,39,0.00,,---,0.00,VWS V14.01,2013-05-13 08:57:00,
2013-05-13 02:02:00,50.0,26.0,30.17,SW,226,8.7,8.7,39,0.00,,---,0.00,VWS V14.01,2013-05-13 09:02:00,
2013-05-13 02:07:00,49.8,25.9,30.17,SW,226,8.7,8.7,39,0.00,,---,0.00,VWS V14.01,2013-05-13 09:07:00,
2013-05-13 02:12:00,49.8,26.8,30.17,SW,226,8.7,8.7,40,0.00,,---,0.00,VWS V14.01,2013-05-13 09:12:00,
2013-05-13 02:17:00,49.6,26.6,30.17,SW,226,8.7,8.7,40,0.00,,---,0.00,VWS V14.01,2013-05-13 09:17:00,
2013-05-13 02:22:00,49.6,26.6,30.17,SW,226,8.7,8.7,40,0.00,,---,0.00,VWS V14.01,2013-05-13 09:22:00,
2013-05-13 02:28:00,49.3,26.3,30.14,SW,226,8.7,8.7,40,0.00,,---,0.00,VWS V14.01,2013-05-13 09:28:00,
2013-05-13 02:33:00,48.9,26.0,30.14,SW,226,8.7,8.7,40,0.00,,---,0.00,VWS V14.01,2013-05-13 09:33:00,
2013-05-13 02:38:00,48.7,25.8,30.14,SW,226,8.7,8.7,40,0.00,,---,0.00,VWS V14.01,2013-05-13 09:38:00,
2013-05-13 02:43:00,48.9,26.0,30.17,SW,226,8.7,8.7,40,0.00,,---,0.00,VWS V14.01,2013-05-13 09:43:00,
2013-05-13 02:49:00,48.9,26.0,30.17,SW,226,8.7,8.7,40,0.00,,---,0.00,VWS V14.01,2013-05-13 09:49:00,
2013-05-13 02:55:00,48.7,25.8,30.17,SW,226,8.7,8.7,40,0.00,,---,0.00,VWS V14.01,2013-05-13 09:55:00,
2013-05-13 03:00:00,48.6,25.6,30.17,SW,226,8.7,8.7,40,0.00,,---,0.00,VWS V14.01,2013-05-13 10:00:00,
2013-05-13 03:05:00,48.2,25.3,30.17,SW,226,8.7,8.7,40,0.00,,---,0.00,VWS V14.01,2013-05-13 10:05:00,
2013-05-13 03:11:00,48.2,26.2,30.14,SW,226,8.7,8.7,42,0.00,,---,0.00,VWS V14.01,2013-05-13 10:11:00,
2013-05-13 03:17:00,48.4,26.4,30.14,SW,226,8.7,8.7,42,0.00,,---,0.00,VWS V14.01,2013-05-13 10:17:00,
2013-05-13 03:22:00,48.2,26.2,30.14,SW,226,8.7,8.7,42,0.00,,---,0.00,VWS V14.01,2013-05-13 10:22:00,
2013-05-13 03:27:00,47.8,25.9,30.14,SW,226,8.7,8.7,42,0.00,,---,0.00,VWS V14.01,2013-05-13 10:27:00,
2013-05-13 03:33:00,47.8,25.9,30.14,SW,226,8.7,8.7,42,0.00,,---,0.00,VWS V14.01,2013-05-13 10:33:00,
2013-05-13 03:38:00,47.8,25.9,30.14,SW,226,8.7,8.7,42,0.00,,---,0.00,VWS V14.01,2013-05-13 10:38:00,
2013-05-13 03:43:00,48.0,26.0,30.14,SW,226,8.7,8.7,42,0.00,,---,0.00,VWS V14.01,2013-05-13 10:43:00,
2013-05-13 03:48:00,47.8,25.9,30.14,SW,226,8.7,8.7,42,0.00,,---,0.00,VWS V14.01,2013-05-13 10:48:00,
2013-05-13 03:53:00,47.5,25.5,30.14,SW,226,8.7,8.7,42,0.00,,---,0.00,VWS V14.01,2013-05-13 10:53:00,
2013-05-13 03:58:00,47.7,25.7,30.14,SW,226,8.7,8.7,42,0.00,,---,0.00,VWS V14.01,2013-05-13 10:58:00,
2013-05-13 04:04:00,47.8,25.9,30.14,SW,226,8.7,8.7,42,0.00,,---,0.00,VWS V14.01,2013-05-13 11:04:00,
2013-05-13 04:09:00,47.8,25.9,30.14,SW,226,8.7,8.7,42,0.00,,---,0.00,VWS V14.01,2013-05-13 11:09:00,
2013-05-13 04:14:00,47.8,25.9,30.14,SW,226,8.7,8.7,42,0.00,,---,0.00,VWS V14.01,2013-05-13 11:14:00,
2013-05-13 04:19:00,47.7,25.7,30.14,SW,226,8.7,8.7,42,0.00,,---,0.00,VWS V14.01,2013-05-13 11:19:00,
2013-05-13 04:26:00,47.7,25.7,30.14,SW,226,8.7,8.7,42,0.00,,---,0.00,VWS V14.01,2013-05-13 11:26:00,
2013-05-13 04:32:00,48.7,26.7,30.14,SW,226,8.7,8.7,42,0.00,,---,0.00,VWS V14.01,2013-05-13 11:32:00,
2013-05-13 04:37:00,48.6,26.5,30.14,SW,226,8.7,8.7,42,0.00,,---,0.00,VWS V14.01,2013-05-13 11:37:00,
2013-05-13 04:42:00,48.7,26.7,30.14,SW,226,8.7,8.7,42,0.00,,---,0.00,VWS V14.01,2013-05-13 11:42:00,
2013-05-13 04:47:00,48.9,26.9,30.14,SW,226,8.7,8.7,42,0.00,,---,0.00,VWS V14.01,2013-05-13 11:47:00,
2013-05-13 04:53:00,49.1,27.0,30.14,SW,226,8.7,8.7,42,0.00,,---,0.00,VWS V14.01,2013-05-13 11:53:00,
2013-05-13 04:58:00,48.9,26.0,30.14,SW,226,8.7,8.7,40,0.00,,---,0.00,VWS V14.01,2013-05-13 11:58:00,
2013-05-13 05:03:00,48.7,25.8,30.14,SW,226,8.7,8.7,40,0.00,,---,0.00,VWS V14.01,2013-05-13 12:03:00,
2013-05-13 05:08:00,48.6,25.6,30.14,SW,226,8.7,8.7,40,0.00,,---,0.00,VWS V14.01,2013-05-13 12:08:00,
2013-05-13 05:13:00,48.2,25.3,30.14,SW,226,8.7,8.7,40,0.00,,---,0.00,VWS V14.01,2013-05-13 12:13:00,
2013-05-13 05:18:00,48.2,25.3,30.14,SW,226,8.7,8.7,40,0.00,,---,0.00,VWS V14.01,2013-05-13 12:18:00,
2013-05-13 05:24:00,48.0,26.0,30.17,SW,226,8.7,8.7,42,0.00,,---,0.00,VWS V14.01,2013-05-13 12:24:00,
2013-05-13 05:29:00,48.4,25.5,30.17,SW,226,8.7,8.7,40,0.00,,---,0.00,VWS V14.01,2013-05-13 12:29:00,
2013-05-13 05:35:00,48.9,26.0,30.17,SW,226,8.7,8.7,40,0.00,,---,0.00,VWS V14.01,2013-05-13 12:35:00,
2013-05-13 05:41:00,48.6,25.6,30.17,SW,226,8.7,8.7,40,0.00,,---,0.00,VWS V14.01,2013-05-13 12:41:00,
2013-05-13 05:47:00,48.4,25.5,30.17,SW,226,8.7,8.7,40,0.00,,---,0.00,VWS V14.01,2013-05-13 12:47:00,
2013-05-13 05:53:00,48.7,25.8,30.17,SW,226,8.7,8.7,40,0.00,,---,0.00,VWS V14.01,2013-05-13 12:53:00,
2013-05-13 05:58:00,48.6,25.6,30.17,SW,226,8.7,8.7,40,0.00,,---,0.00,VWS V14.01,2013-05-13 12:58:00,
2013-05-13 06:03:00,48.6,25.6,30.17,SW,226,8.7,8.7,40,0.00,,---,0.00,VWS V14.01,2013-05-13 13:03:00,
2013-05-13 06:09:00,48.6,25.6,30.17,SW,226,8.7,8.7,40,0.00,,---,0.00,VWS V14.01,2013-05-13 13:09:00,
2013-05-13 06:14:00,48.7,25.8,30.17,SW,226,8.7,8.7,40,0.00,,---,0.00,VWS V14.01,2013-05-13 13:14:00,
2013-05-13 06:19:00,49.3,27.2,30.17,SW,226,8.7,8.7,42,0.00,,---,0.00,VWS V14.01,2013-05-13 13:19:00,
2013-05-13 06:24:00,50.5,27.4,30.17,SW,226,8.7,8.7,40,0.00,,---,0.00,VWS V14.01,2013-05-13 13:24:00,
2013-05-13 06:29:00,51.4,28.2,30.17,SW,226,8.7,8.7,40,0.00,,---,0.00,VWS V14.01,2013-05-13 13:29:00,
2013-05-13 06:34:00,52.0,28.7,30.17,SW,226,8.7,8.7,40,0.00,,---,0.00,VWS V14.01,2013-05-13 13:34:00,
2013-05-13 06:40:00,53.2,29.9,30.17,SW,226,8.7,8.7,40,0.00,,---,0.00,VWS V14.01,2013-05-13 13:40:00,
2013-05-13 06:45:00,54.5,30.1,30.17,SW,226,8.7,8.7,39,0.00,,---,0.00,VWS V14.01,2013-05-13 13:45:00,
2013-05-13 06:50:00,55.8,31.2,30.17,SW,226,8.7,8.7,39,0.00,,---,0.00,VWS V14.01,2013-05-13 13:50:00,
2013-05-13 06:55:00,57.4,31.7,30.17,SW,226,8.7,8.7,38,0.00,,---,0.00,VWS V14.01,2013-05-13 13:55:00,
2013-05-13 07:00:00,58.3,32.5,30.17,SW,226,8.7,8.7,38,0.00,,---,0.00,VWS V14.01,2013-05-13 14:00:00,
2013-05-13 07:05:00,59.2,33.3,30.17,SW,226,8.7,8.7,38,0.00,,---,0.00,VWS V14.01,2013-05-13 14:05:00,
2013-05-13 07:11:00,60.6,33.5,30.17,SW,226,8.7,8.7,36,0.00,,---,0.00,VWS V14.01,2013-05-13 14:11:00,
2013-05-13 07:16:00,62.1,34.8,30.17,SW,226,8.7,8.7,36,0.00,,---,0.00,VWS V14.01,2013-05-13 14:16:00,
2013-05-13 07:21:00,63.9,35.3,30.17,SW,226,8.7,8.7,34,0.00,,---,0.00,VWS V14.01,2013-05-13 14:21:00,
2013-05-13 07:27:00,65.8,37.1,30.17,SW,226,8.7,8.7,34,0.00,,---,0.00,VWS V14.01,2013-05-13 14:27:00,
2013-05-13 07:33:00,67.3,34.8,30.17,SW,226,8.7,8.7,30,0.00,,---,0.00,VWS V14.01,2013-05-13 14:33:00,
2013-05-13 07:39:00,69.1,36.4,30.17,SW,226,8.7,8.7,30,0.00,,---,0.00,VWS V14.01,2013-05-13 14:39:00,
2013-05-13 07:44:00,70.5,36.3,30.17,SW,226,8.7,8.7,28,0.00,,---,0.00,VWS V14.01,2013-05-13 14:44:00,
2013-05-13 07:49:00,72.1,33.4,30.17,SW,226,8.7,8.7,24,0.00,,---,0.00,VWS V14.01,2013-05-13 14:49:00,
2013-05-13 07:54:00,73.8,34.8,30.17,SW,226,8.7,8.7,24,0.00,,---,0.00,VWS V14.01,2013-05-13 14:54:00,
2013-05-13 08:00:00,75.4,34.5,30.17,SW,226,8.7,8.7,22,0.00,,---,0.00,VWS V14.01,2013-05-13 15:00:00,
2013-05-13 08:05:00,76.6,35.5,30.17,SW,226,8.7,8.7,22,0.00,,---,0.00,VWS V14.01,2013-05-13 15:05:00,
2013-05-13 08:10:00,78.1,36.8,30.17,SW,226,8.7,8.7,22,0.00,,---,0.00,VWS V14.01,2013-05-13 15:10:00,
2013-05-13 08:15:00,79.2,37.7,30.17,SW,226,8.7,8.7,22,0.00,,---,0.00,VWS V14.01,2013-05-13 15:15:00,
2013-05-13 08:21:00,80.4,38.7,30.17,SW,226,8.7,8.7,22,0.00,,---,0.00,VWS V14.01,2013-05-13 15:21:00,
2013-05-13 08:26:00,81.5,37.8,30.17,SW,226,8.7,8.7,21,0.00,,---,0.00,VWS V14.01,2013-05-13 15:26:00,
2013-05-13 08:31:00,82.6,38.7,30.17,SW,226,8.7,8.7,21,0.00,,---,0.00,VWS V14.01,2013-05-13 15:31:00,
2013-05-13 08:37:00,83.7,39.6,30.17,SW,226,8.7,8.7,21,0.00,,---,0.00,VWS V14.01,2013-05-13 15:37:00,
2013-05-13 08:43:00,84.9,38.8,30.17,SW,226,8.7,8.7,20,0.00,,---,0.00,VWS V14.01,2013-05-13 15:43:00,
2013-05-13 08:49:00,86.0,39.7,30.17,SW,226,8.7,8.7,20,0.00,,---,0.00,VWS V14.01,2013-05-13 15:49:00,
2013-05-13 08:54:00,87.1,40.5,30.17,SW,226,8.7,8.7,20,0.00,,---,0.00,VWS V14.01,2013-05-13 15:54:00,
2013-05-13 09:00:00,88.0,41.3,30.17,SW,226,8.7,8.7,20,0.00,,---,0.00,VWS V14.01,2013-05-13 16:00:00,
2013-05-13 09:05:00,88.5,41.7,30.17,SW,226,8.7,8.7,20,0.00,,---,0.00,VWS V14.01,2013-05-13 16:05:00,
2013-05-13 09:10:00,89.2,42.3,30.17,SW,226,8.7,8.7,20,0.00,,---,0.00,VWS V14.01,2013-05-13 16:10:00,
2013-05-13 09:15:00,89.6,40.5,30.17,SW,226,8.7,8.7,18,0.00,,---,0.00,VWS V14.01,2013-05-13 16:15:00,
2013-05-13 09:20:00,89.4,42.5,30.17,SW,226,8.7,8.7,20,0.00,,---,0.00,VWS V14.01,2013-05-13 16:20:00,
2013-05-13 09:25:00,90.1,41.0,30.17,WSW,242,2.7,2.7,18,0.00,,---,0.00,VWS V14.01,2013-05-13 16:25:00,
2013-05-13 09:31:00,90.3,41.1,30.17,WSW,242,2.7,2.7,18,0.00,,---,0.00,VWS V14.01,2013-05-13 16:31:00,
2013-05-13 09:36:00,90.7,41.4,30.17,WSW,242,2.7,2.7,18,0.00,,---,0.00,VWS V14.01,2013-05-13 16:36:00,
2013-05-13 09:41:00,91.0,41.7,30.17,WSW,242,2.7,2.7,18,0.00,,---,0.00,VWS V14.01,2013-05-13 16:41:00,
2013-05-13 09:46:00,91.6,42.1,30.17,WSW,242,2.7,2.7,18,0.00,,---,0.00,VWS V14.01,2013-05-13 16:46:00,
2013-05-13 09:51:00,91.9,42.4,30.17,WSW,242,2.7,2.7,18,0.00,,---,0.00,VWS V14.01,2013-05-13 16:51:00,
2013-05-13 09:57:00,92.3,42.7,30.17,WSW,242,2.7,2.7,18,0.00,,---,0.00,VWS V14.01,2013-05-13 16:57:00,
2013-05-13 10:02:00,91.9,42.4,30.17,WSW,242,2.7,2.7,18,0.00,,---,0.00,VWS V14.01,2013-05-13 17:02:00,
2013-05-13 10:07:00,91.0,41.7,30.17,WSW,242,2.7,2.7,18,0.00,,---,0.00,VWS V14.01,2013-05-13 17:07:00,
2013-05-13 10:12:00,91.2,41.8,30.17,WSW,242,2.7,2.7,18,0.00,,---,0.00,VWS V14.01,2013-05-13 17:12:00,
2013-05-13 10:17:00,91.8,42.3,30.17,WSW,242,2.7,2.7,18,0.00,,---,0.00,VWS V14.01,2013-05-13 17:17:00,
2013-05-13 10:22:00,91.6,42.1,30.17,WSW,242,2.7,2.7,18,0.00,,---,0.00,VWS V14.01,2013-05-13 17:22:00,
2013-05-13 10:28:00,91.0,41.7,30.17,WSW,242,2.7,2.7,18,0.00,,---,0.00,VWS V14.01,2013-05-13 17:28:00,
2013-05-13 10:33:00,90.7,41.4,30.17,WSW,242,2.7,2.7,18,0.00,,---,0.00,VWS V14.01,2013-05-13 17:33:00,
2013-05-13 10:38:00,91.9,42.4,30.17,WSW,242,2.7,2.7,18,0.00,,---,0.00,VWS V14.01,2013-05-13 17:38:00,
2013-05-13 10:44:00,92.8,43.2,30.17,WSW,242,2.7,2.7,18,0.00,,---,0.00,VWS V14.01,2013-05-13 17:44:00,
2013-05-13 10:50:00,92.8,43.2,30.17,WSW,242,2.7,2.7,18,0.00,,---,0.00,VWS V14.01,2013-05-13 17:50:00,
2013-05-13 10:55:00,92.7,43.0,30.17,WSW,242,2.7,2.7,18,0.00,,---,0.00,VWS V14.01,2013-05-13 17:55:00,
2013-05-13 11:01:00,93.0,43.3,30.17,WSW,242,2.7,2.7,18,0.00,,---,0.00,VWS V14.01,2013-05-13 18:01:00,
2013-05-13 11:07:00,92.5,42.9,30.17,WSW,242,2.7,2.7,18,0.00,,---,0.00,VWS V14.01,2013-05-13 18:07:00,
2013-05-13 11:13:00,92.8,43.2,30.17,WSW,242,2.7,2.7,18,0.00,,---,0.00,VWS V14.01,2013-05-13 18:13:00,
2013-05-13 11:18:00,93.6,41.5,30.17,WSW,242,2.7,2.7,16,0.00,,---,0.00,VWS V14.01,2013-05-13 18:18:00,
2013-05-13 11:23:00,93.7,41.6,30.17,WSW,242,2.7,2.7,16,0.00,,---,0.00,VWS V14.01,2013-05-13 18:23:00,
2013-05-13 11:29:00,94.3,42.0,30.17,WSW,242,2.7,2.7,16,0.00,,---,0.00,VWS V14.01,2013-05-13 18:29:00,
2013-05-13 11:34:00,94.6,42.3,30.17,WSW,242,2.7,2.7,16,0.00,,---,0.00,VWS V14.01,2013-05-13 18:34:00,
2013-05-13 11:39:00,94.1,41.9,30.17,WSW,242,2.7,2.7,16,0.00,,---,0.00,VWS V14.01,2013-05-13 18:39:00,
2013-05-13 11:44:00,93.4,41.3,30.17,WSW,242,2.7,2.7,16,0.00,,---,0.00,VWS V14.01,2013-05-13 18:44:00,
2013-05-13 11:50:00,94.6,42.3,30.17,WSW,242,2.7,2.7,16,0.00,,---,0.00,VWS V14.01,2013-05-13 18:50:00,
2013-05-13 11:55:00,94.3,42.0,30.17,WSW,242,2.7,2.7,16,0.00,,---,0.00,VWS V14.01,2013-05-13 18:55:00,
2013-05-13 12:00:00,94.5,42.2,30.17,WSW,242,2.7,2.7,16,0.00,,---,0.00,VWS V14.01,2013-05-13 19:00:00,
2013-05-13 12:05:00,93.7,41.6,30.17,WSW,242,2.7,2.7,16,0.00,,---,0.00,VWS V14.01,2013-05-13 19:05:00,
2013-05-13 12:11:00,93.6,41.5,30.17,WSW,242,2.7,2.7,16,0.00,,---,0.00,VWS V14.01,2013-05-13 19:11:00,
2013-05-13 12:16:00,93.6,41.5,30.17,WSW,242,2.7,2.7,16,0.00,,---,0.00,VWS V14.01,2013-05-13 19:16:00,
2013-05-13 12:21:00,93.6,41.5,30.17,WSW,242,2.7,2.7,16,0.00,,---,0.00,VWS V14.01,2013-05-13 19:21:00,
2013-05-13 12:27:00,93.7,41.6,30.17,WSW,242,2.7,2.7,16,0.00,,---,0.00,VWS V14.01,2013-05-13 19:27:00,
2013-05-13 12:32:00,94.3,42.0,30.17,WSW,242,2.7,2.7,16,0.00,,---,0.00,VWS V14.01,2013-05-13 19:32:00,
2013-05-13 12:37:00,93.4,41.3,30.17,WSW,242,2.7,2.7,16,0.00,,---,0.00,VWS V14.01,2013-05-13 19:37:00,
2013-05-13 12:42:00,93.0,43.3,30.17,WSW,242,2.7,2.7,18,0.00,,---,0.00,VWS V14.01,2013-05-13 19:42:00,
2013-05-13 12:48:00,94.3,42.0,30.17,WSW,242,2.7,2.7,16,0.00,,---,0.00,VWS V14.01,2013-05-13 19:48:00,
2013-05-13 12:53:00,92.8,43.2,30.17,WSW,242,2.7,2.7,18,0.00,,---,0.00,VWS V14.01,2013-05-13 19:53:00,
2013-05-13 12:58:00,92.8,43.2,30.17,WSW,242,2.7,2.7,18,0.00,,---,0.00,VWS V14.01,2013-05-13 19:58:00,
2013-05-13 13:04:00,93.0,43.3,30.17,WSW,242,2.7,2.7,18,0.00,,---,0.00,VWS V14.01,2013-05-13 20:04:00,
2013-05-13 13:09:00,94.6,42.3,30.17,WSW,242,2.7,2.7,16,0.00,,---,0.00,VWS V14.01,2013-05-13 20:09:00,
2013-05-13 13:15:00,95.9,43.3,30.14,WSW,242,2.7,2.7,16,0.00,,---,0.00,VWS V14.01,2013-05-13 20:15:00,
2013-05-13 13:21:00,96.3,43.6,30.14,WSW,242,2.7,2.7,16,0.00,,---,0.00,VWS V14.01,2013-05-13 20:21:00,
2013-05-13 13:27:00,96.4,43.8,30.14,WSW,242,2.7,2.7,16,0.00,,---,0.00,VWS V14.01,2013-05-13 20:27:00,
2013-05-13 13:32:00,95.0,42.6,30.14,WSW,242,2.7,2.7,16,0.00,,---,0.00,VWS V14.01,2013-05-13 20:32:00,
2013-05-13 13:38:00,95.4,42.9,30.14,WSW,242,2.7,2.7,16,0.00,,---,0.00,VWS V14.01,2013-05-13 20:38:00,
2013-05-13 13:43:00,94.8,42.5,30.14,WSW,242,2.7,2.7,16,0.00,,---,0.00,VWS V14.01,2013-05-13 20:43:00,
2013-05-13 13:49:00,95.5,43.0,30.14,WSW,242,2.7,2.7,16,0.00,,---,0.00,VWS V14.01,2013-05-13 20:49:00,
2013-05-13 13:55:00,96.3,43.6,30.14,WSW,242,2.7,2.7,16,0.00,,---,0.00,VWS V14.01,2013-05-13 20:55:00,
2013-05-13 14:01:00,96.8,44.1,30.14,WSW,242,2.7,2.7,16,0.00,,---,0.00,VWS V14.01,2013-05-13 21:01:00,
2013-05-13 14:06:00,95.9,43.3,30.14,WSW,242,2.7,2.7,16,0.00,,---,0.00,VWS V14.01,2013-05-13 21:06:00,
2013-05-13 14:12:00,96.4,43.8,30.14,WSW,242,2.7,2.7,16,0.00,,---,0.00,VWS V14.01,2013-05-13 21:12:00,
2013-05-13 14:18:00,97.0,44.2,30.14,WSW,242,2.7,2.7,16,0.00,,---,0.00,VWS V14.01,2013-05-13 21:18:00,
2013-05-13 14:24:00,96.4,43.8,30.14,WSW,242,2.7,2.7,16,0.00,,---,0.00,VWS V14.01,2013-05-13 21:24:00,
2013-05-13 14:29:00,93.6,41.5,30.14,WSW,242,2.7,2.7,16,0.00,,---,0.00,VWS V14.01,2013-05-13 21:29:00,
2013-05-13 14:35:00,94.3,42.0,30.11,WSW,242,2.7,2.7,16,0.00,,---,0.00,VWS V14.01,2013-05-13 21:35:00,
2013-05-13 14:40:00,95.7,43.2,30.11,WSW,242,2.7,2.7,16,0.00,,---,0.00,VWS V14.01,2013-05-13 21:40:00,
2013-05-13 14:47:00,95.7,43.2,30.11,WSW,242,2.7,2.7,16,0.00,,---,0.00,VWS V14.01,2013-05-13 21:47:00,
2013-05-13 14:53:00,96.4,43.8,30.11,WSW,242,2.7,2.7,16,0.00,,---,0.00,VWS V14.01,2013-05-13 21:53:00,
2013-05-13 14:58:00,97.0,44.2,30.11,WSW,242,2.7,2.7,16,0.00,,---,0.00,VWS V14.01,2013-05-13 21:58:00,
2013-05-13 15:04:00,96.8,44.1,30.11,WSW,242,2.7,2.7,16,0.00,,---,0.00,VWS V14.01,2013-05-13 22:04:00,
2013-05-13 15:11:00,95.7,43.2,30.11,WSW,242,2.7,2.7,16,0.00,,---,0.00,VWS V14.01,2013-05-13 22:11:00,
2013-05-13 15:16:00,95.4,42.9,30.11,WSW,242,2.7,2.7,16,0.00,,---,0.00,VWS V14.01,2013-05-13 22:16:00,
2013-05-13 15:22:00,95.0,42.6,30.11,WSW,242,2.7,2.7,16,0.00,,---,0.00,VWS V14.01,2013-05-13 22:22:00,
2013-05-13 15:28:00,95.9,43.3,30.11,WSW,242,2.7,2.7,16,0.00,,---,0.00,VWS V14.01,2013-05-13 22:28:00,
2013-05-13 15:33:00,96.3,43.6,30.11,WSW,242,2.7,2.7,16,0.00,,---,0.00,VWS V14.01,2013-05-13 22:33:00,
2013-05-13 15:39:00,96.1,43.5,30.11,WSW,242,2.7,2.7,16,0.00,,---,0.00,VWS V14.01,2013-05-13 22:39:00,
2013-05-13 15:44:00,95.9,43.3,30.11,WSW,242,2.7,2.7,16,0.00,,---,0.00,VWS V14.01,2013-05-13 22:44:00,
2013-05-13 15:49:00,93.7,41.6,30.11,WSW,242,2.7,2.7,16,0.00,,---,0.00,VWS V14.01,2013-05-13 22:49:00,
2013-05-13 15:54:00,92.8,43.2,30.11,WSW,242,2.7,2.7,18,0.00,,---,0.00,VWS V14.01,2013-05-13 22:54:00,
2013-05-13 15:59:00,93.7,41.6,30.11,WSW,242,2.7,2.7,16,0.00,,---,0.00,VWS V14.01,2013-05-13 22:59:00,
2013-05-13 16:04:00,93.7,41.6,30.11,WSW,242,2.7,2.7,16,0.00,,---,0.00,VWS V14.01,2013-05-13 23:04:00,
2013-05-13 16:10:00,93.7,41.6,30.11,WSW,242,2.7,2.7,16,0.00,,---,0.00,VWS V14.01,2013-05-13 23:10:00,
2013-05-13 16:15:00,93.6,41.5,30.11,WSW,242,2.7,2.7,16,0.00,,---,0.00,VWS V14.01,2013-05-13 23:15:00,
2013-05-13 16:20:00,93.0,43.3,30.11,WSW,242,2.7,2.7,18,0.00,,---,0.00,VWS V14.01,2013-05-13 23:20:00,
2013-05-13 16:25:00,93.2,41.2,30.11,WSW,242,2.7,2.7,16,0.00,,---,0.00,VWS V14.01,2013-05-13 23:25:00,
2013-05-13 16:30:00,93.4,41.3,30.11,WSW,242,2.7,2.7,16,0.00,,---,0.00,VWS V14.01,2013-05-13 23:30:00,
2013-05-13 16:35:00,93.0,43.3,30.11,WSW,242,2.7,2.7,18,0.00,,---,0.00,VWS V14.01,2013-05-13 23:35:00,
2013-05-13 16:40:00,92.3,42.7,30.08,WSW,242,2.7,2.7,18,0.00,,---,0.00,VWS V14.01,2013-05-13 23:40:00,
2013-05-13 16:45:00,92.8,43.2,30.08,WSW,242,2.7,2.7,18,0.00,,---,0.00,VWS V14.01,2013-05-13 23:45:00,
2013-05-13 16:51:00,93.2,41.2,30.08,WSW,242,2.7,2.7,16,0.00,,---,0.00,VWS V14.01,2013-05-13 23:51:00,
2013-05-13 16:56:00,93.6,41.5,30.08,WSW,242,2.7,2.7,16,0.00,,---,0.00,VWS V14.01,2013-05-13 23:56:00,
2013-05-13 17:02:00,92.8,43.2,30.08,WSW,242,2.7,2.7,18,0.00,,---,0.00,VWS V14.01,2013-05-14 00:02:00,
2013-05-13 17:07:00,91.8,42.3,30.08,WSW,242,2.7,2.7,18,0.00,,---,0.00,VWS V14.01,2013-05-14 00:07:00,
2013-05-13 17:12:00,91.4,42.0,30.08,WSW,242,2.7,2.7,18,0.00,,---,0.00,VWS V14.01,2013-05-14 00:12:00,
2013-05-13 17:18:00,91.6,42.1,30.08,WSW,242,2.7,2.7,18,0.00,,---,0.00,VWS V14.01,2013-05-14 00:18:00,
2013-05-13 17:24:00,90.9,41.5,30.08,WSW,242,2.7,2.7,18,0.00,,---,0.00,VWS V14.01,2013-05-14 00:24:00,
2013-05-13 17:29:00,91.4,42.0,30.08,WSW,242,2.7,2.7,18,0.00,,---,0.00,VWS V14.01,2013-05-14 00:29:00,
2013-05-13 17:34:00,92.1,42.6,30.08,WSW,242,2.7,2.7,18,0.00,,---,0.00,VWS V14.01,2013-05-14 00:34:00,
2013-05-13 17:40:00,90.1,41.0,30.08,WSW,242,2.7,2.7,18,0.00,,---,0.00,VWS V14.01,2013-05-14 00:40:00,
2013-05-13 17:46:00,90.1,41.0,30.08,WSW,242,2.7,2.7,18,0.00,,---,0.00,VWS V14.01,2013-05-14 00:46:00,
2013-05-13 17:51:00,90.3,41.1,30.08,WSW,242,2.7,2.7,18,0.00,,---,0.00,VWS V14.01,2013-05-14 00:51:00,
2013-05-13 17:56:00,90.3,41.1,30.08,WSW,242,2.7,2.7,18,0.00,,---,0.00,VWS V14.01,2013-05-14 00:56:00,
2013-05-13 18:01:00,89.8,40.7,30.08,WSW,242,2.7,2.7,18,0.00,,---,0.00,VWS V14.01,2013-05-14 01:01:00,
2013-05-13 18:08:00,89.8,40.7,30.08,WSW,242,2.7,2.7,18,0.00,,---,0.00,VWS V14.01,2013-05-14 01:08:00,
2013-05-13 18:14:00,89.6,40.5,30.08,WSW,242,2.7,2.7,18,0.00,,---,0.00,VWS V14.01,2013-05-14 01:14:00,
2013-05-13 18:19:00,89.2,42.3,30.08,WSW,242,2.7,2.7,20,0.00,,---,0.00,VWS V14.01,2013-05-14 01:19:00,
2013-05-13 18:25:00,88.5,41.7,30.08,WSW,247,12.8,12.8,20,0.00,,---,0.00,VWS V14.01,2013-05-14 01:25:00,
2013-05-13 18:30:00,88.0,41.3,30.08,WSW,247,12.8,12.8,20,0.00,,---,0.00,VWS V14.01,2013-05-14 01:30:00,
2013-05-13 18:37:00,87.8,41.1,30.08,WSW,247,12.8,12.8,20,0.00,,---,0.00,VWS V14.01,2013-05-14 01:37:00,
2013-05-13 18:43:00,87.3,40.7,30.08,WSW,247,12.8,12.8,20,0.00,,---,0.00,VWS V14.01,2013-05-14 01:43:00,
2013-05-13 18:48:00,87.1,40.5,30.08,WSW,247,12.8,12.8,20,0.00,,---,0.00,VWS V14.01,2013-05-14 01:48:00,
2013-05-13 18:54:00,86.7,40.2,30.08,WSW,247,12.8,12.8,20,0.00,,---,0.00,VWS V14.01,2013-05-14 01:54:00,
2013-05-13 19:01:00,85.6,39.4,30.08,WSW,247,12.8,12.8,20,0.00,,---,0.00,VWS V14.01,2013-05-14 02:01:00,
2013-05-13 19:06:00,84.6,38.5,30.08,WSW,247,12.8,12.8,20,0.00,,---,0.00,VWS V14.01,2013-05-14 02:06:00,
2013-05-13 19:11:00,83.8,39.8,30.08,WSW,247,12.8,12.8,21,0.00,,---,0.00,VWS V14.01,2013-05-14 02:11:00,
2013-05-13 19:16:00,83.7,39.6,30.08,WSW,247,12.8,12.8,21,0.00,,---,0.00,VWS V14.01,2013-05-14 02:16:00,
2013-05-13 19:21:00,83.5,39.5,30.08,WSW,247,12.8,12.8,21,0.00,,---,0.00,VWS V14.01,2013-05-14 02:21:00,
2013-05-13 19:27:00,82.8,38.9,30.11,WSW,247,12.8,12.8,21,0.00,,---,0.00,VWS V14.01,2013-05-14 02:27:00,
2013-05-13 19:32:00,81.3,37.7,30.11,WSW,247,12.8,12.8,21,0.00,,---,0.00,VWS V14.01,2013-05-14 02:32:00,
2013-05-13 19:37:00,80.4,38.7,30.11,WSW,247,12.8,12.8,22,0.00,,---,0.00,VWS V14.01,2013-05-14 02:37:00,
2013-05-13 19:43:00,80.2,38.5,30.11,WSW,247,12.8,12.8,22,0.00,,---,0.00,VWS V14.01,2013-05-14 02:43:00,
2013-05-13 19:48:00,80.2,38.5,30.11,WSW,247,12.8,12.8,22,0.00,,---,0.00,VWS V14.01,2013-05-14 02:48:00,
2013-05-13 19:53:00,79.9,38.2,30.11,WSW,247,12.8,12.8,22,0.00,,---,0.00,VWS V14.01,2013-05-14 02:53:00,
2013-05-13 19:58:00,78.1,33.2,30.11,WSW,247,12.8,12.8,20,0.00,,---,0.00,VWS V14.01,2013-05-14 02:58:00,
2013-05-13 20:04:00,76.8,32.1,30.11,WSW,247,12.8,12.8,20,0.00,,---,0.00,VWS V14.01,2013-05-14 03:04:00,
2013-05-13 20:10:00,75.9,31.4,30.11,WSW,247,12.8,12.8,20,0.00,,---,0.00,VWS V14.01,2013-05-14 03:10:00,
2013-05-13 20:15:00,75.4,30.9,30.11,WSW,247,12.8,12.8,20,0.00,,---,0.00,VWS V14.01,2013-05-14 03:15:00,
2013-05-13 20:20:00,75.0,30.6,30.11,WSW,247,12.8,12.8,20,0.00,,---,0.00,VWS V14.01,2013-05-14 03:20:00,
2013-05-13 20:25:00,74.5,30.2,30.11,WSW,247,12.8,12.8,20,0.00,,---,0.00,VWS V14.01,2013-05-14 03:25:00,
2013-05-13 20:31:00,73.4,29.3,30.11,WSW,247,12.8,12.8,20,0.00,,---,0.00,VWS V14.01,2013-05-14 03:31:00,
2013-05-13 20:36:00,72.3,30.2,30.11,WSW,247,12.8,12.8,21,0.00,,---,0.00,VWS V14.01,2013-05-14 03:36:00,
2013-05-13 20:41:00,71.8,29.8,30.11,WSW,247,12.8,12.8,21,0.00,,---,0.00,VWS V14.01,2013-05-14 03:41:00,
2013-05-13 20:46:00,71.2,29.3,30.11,WSW,247,12.8,12.8,21,0.00,,---,0.00,VWS V14.01,2013-05-14 03:46:00,
2013-05-13 20:51:00,70.7,28.9,30.11,WSW,247,12.8,12.8,21,0.00,,---,0.00,VWS V14.01,2013-05-14 03:51:00,
2013-05-13 20:57:00,70.0,28.3,30.11,WSW,247,12.8,12.8,21,0.00,,---,0.00,VWS V14.01,2013-05-14 03:57:00,
2013-05-13 21:01:00,69.1,29.2,30.11,WSW,247,12.8,12.8,22,0.00,,---,0.00,VWS V14.01,2013-05-14 04:01:00,
2013-05-13 21:02:00,68.9,29.1,30.11,WSW,247,12.8,12.8,22,0.00,,---,0.00,VWS V14.01,2013-05-14 04:02:00,
2013-05-13 21:04:00,68.4,28.6,30.11,WSW,247,12.8,12.8,22,0.00,,---,0.00,VWS V14.01,2013-05-14 04:04:00,
2013-05-13 21:06:00,68.0,28.3,30.11,WSW,247,12.8,12.8,22,0.00,,---,0.00,VWS V14.01,2013-05-14 04:06:00,
2013-05-13 21:10:00,67.5,27.9,30.11,WSW,247,12.8,12.8,22,0.00,,---,0.00,VWS V14.01,2013-05-14 04:10:00,
2013-05-13 21:15:00,67.3,27.7,30.11,WSW,247,12.8,12.8,22,0.00,,---,0.00,VWS V14.01,2013-05-14 04:15:00,
2013-05-13 21:20:00,67.1,27.6,30.11,WSW,247,12.8,12.8,22,0.00,,---,0.00,VWS V14.01,2013-05-14 04:20:00,
2013-05-13 21:26:00,66.2,26.8,30.11,WSW,247,12.8,12.8,22,0.00,,---,0.00,VWS V14.01,2013-05-14 04:26:00,
2013-05-13 21:31:00,65.7,26.4,30.11,WSW,247,12.8,12.8,22,0.00,,---,0.00,VWS V14.01,2013-05-14 04:31:00,
2013-05-13 21:36:00,64.4,25.3,30.11,WSW,247,12.8,12.8,22,0.00,,---,0.00,VWS V14.01,2013-05-14 04:36:00,
2013-05-13 21:42:00,63.1,25.8,30.11,WSW,247,12.8,12.8,24,0.00,,---,0.00,VWS V14.01,2013-05-14 04:42:00,
2013-05-13 21:48:00,63.1,25.8,30.11,WSW,247,12.8,12.8,24,0.00,,---,0.00,VWS V14.01,2013-05-14 04:48:00,
2013-05-13 21:54:00,63.5,26.1,30.11,WSW,247,12.8,12.8,24,0.00,,---,0.00,VWS V14.01,2013-05-14 04:54:00,
2013-05-13 22:01:00,63.1,28.6,30.14,WSW,247,12.8,12.8,27,0.00,,---,0.00,VWS V14.01,2013-05-14 05:01:00,
2013-05-13 22:09:00,62.2,29.2,30.14,WSW,247,12.8,12.8,28,0.00,,---,0.00,VWS V14.01,2013-05-14 05:09:00,
2013-05-13 22:15:00,61.5,28.6,30.14,WSW,247,12.8,12.8,28,0.00,,---,0.00,VWS V14.01,2013-05-14 05:15:00,
2013-05-13 22:20:00,60.8,27.9,30.14,WSW,247,12.8,12.8,28,0.00,,---,0.00,VWS V14.01,2013-05-14 05:20:00,
2013-05-13 22:26:00,59.9,27.2,30.14,WSW,247,12.8,12.8,28,0.00,,---,0.00,VWS V14.01,2013-05-14 05:26:00,
2013-05-13 22:31:00,59.4,26.7,30.14,WSW,247,12.8,12.8,28,0.00,,---,0.00,VWS V14.01,2013-05-14 05:31:00,
2013-05-13 22:36:00,59.2,26.5,30.14,WSW,247,12.8,12.8,28,0.00,,---,0.00,VWS V14.01,2013-05-14 05:36:00,
2013-05-13 22:42:00,59.0,26.4,30.14,WSW,247,12.8,12.8,28,0.00,,---,0.00,VWS V14.01,2013-05-14 05:42:00,
2013-05-13 22:48:00,58.8,26.2,30.14,WSW,247,12.8,12.8,28,0.00,,---,0.00,VWS V14.01,2013-05-14 05:48:00,
2013-05-13 22:54:00,57.9,25.5,30.14,WSW,247,12.8,12.8,28,0.00,,---,0.00,VWS V14.01,2013-05-14 05:54:00,
2013-05-13 22:59:00,56.8,25.8,30.14,WSW,247,12.8,12.8,30,0.00,,---,0.00,VWS V14.01,2013-05-14 05:59:00,
2013-05-13 23:05:00,57.0,25.9,30.14,WSW,247,12.8,12.8,30,0.00,,---,0.00,VWS V14.01,2013-05-14 06:05:00,
2013-05-13 23:12:00,57.2,28.4,30.14,WSW,247,12.8,12.8,33,0.00,,---,0.00,VWS V14.01,2013-05-14 06:12:00,
2013-05-13 23:17:00,57.4,28.5,30.14,WSW,247,12.8,12.8,33,0.00,,---,0.00,VWS V14.01,2013-05-14 06:17:00,
2013-05-13 23:23:00,56.8,28.1,30.14,WSW,247,12.8,12.8,33,0.00,,---,0.00,VWS V14.01,2013-05-14 06:23:00,
2013-05-13 23:30:00,56.5,27.8,30.14,WSW,247,12.8,12.8,33,0.00,,---,0.00,VWS V14.01,2013-05-14 06:30:00,
2013-05-13 23:35:00,56.3,27.6,30.14,WSW,247,12.8,12.8,33,0.00,,---,0.00,VWS V14.01,2013-05-14 06:35:00,
2013-05-13 23:40:00,55.9,27.3,30.14,WSW,247,12.8,12.8,33,0.00,,---,0.00,VWS V14.01,2013-05-14 06:40:00,
2013-05-13 23:45:00,55.8,27.1,30.14,WSW,247,12.8,12.8,33,0.00,,---,0.00,VWS V14.01,2013-05-14 06:45:00,
2013-05-13 23:50:00,55.9,27.3,30.14,WSW,247,12.8,12.8,33,0.00,,---,0.00,VWS V14.01,2013-05-14 06:50:00,
2013-05-13 23:55:00,55.9,27.3,30.14,WSW,247,12.8,12.8,33,0.00,,---,0.00,VWS V14.01,2013-05-14 06:55:00,